Time;durP1;ratioP1;P1;durP2;ratioP2;P2;SDS_P1;SDS_P2;PMS_P1;PMS_P2;Temp;Humidity;BMP_temperature;BMP_pressure;BME280_temperature;BME280_humidity;BME280_pressure;Samples;Min_cycle;Max_cycle;Signal;HPM_P1;HPM_P2
2023/12/19 00:00:43;;;;;;;437.97;166.33;;;;;;;;;;4990436;28;20232;-52
2023/12/19 00:03:10;;;;;;;442.07;163.33;;;;;;;;;;4992634;28;20190;-52
2023/12/19 00:05:36;;;;;;;443.83;166.47;;;;;;;;;;4987493;28;20289;-51
2023/12/19 00:08:02;;;;;;;448.90;174.60;;;;;;;;;;4990118;28;20252;-52
2023/12/19 00:10:27;;;;;;;442.97;163.57;;;;;;;;;;4988166;28;20727;-52
2023/12/19 00:12:53;;;;;;;466.80;173.20;;;;;;;;;;4992252;28;20591;-52
2023/12/19 00:15:22;;;;;;;420.40;157.27;;;;;;;;;;4994733;28;20197;-51
2023/12/19 00:17:48;;;;;;;423.53;158.67;;;;;;;;;;4993419;28;20216;-52
2023/12/19 00:20:14;;;;;;;457.53;172.77;;;;;;;;;;4988221;28;20327;-51
2023/12/19 00:22:40;;;;;;;437.83;163.00;;;;;;;;;;4989370;28;20217;-52
2023/12/19 00:25:06;;;;;;;467.33;175.60;;;;;;;;;;4989519;28;20672;-52
2023/12/19 00:27:32;;;;;;;453.97;171.17;;;;;;;;;;4987687;28;20185;-52
2023/12/19 00:29:58;;;;;;;442.63;170.47;;;;;;;;;;4985312;28;20217;-52
2023/12/19 00:32:24;;;;;;;428.63;162.03;;;;;;;;;;4991875;28;20213;-52
2023/12/19 00:34:50;;;;;;;464.43;175.43;;;;;;;;;;4988293;28;20225;-52
2023/12/19 00:37:16;;;;;;;448.27;165.80;;;;;;;;;;4986763;28;20209;-52
2023/12/19 00:39:42;;;;;;;483.93;183.00;;;;;;;;;;4986695;28;20306;-52
2023/12/19 00:42:08;;;;;;;462.83;172.27;;;;;;;;;;4990185;28;20178;-52
2023/12/19 00:44:37;;;;;;;438.83;162.10;;;;;;;;;;4989699;28;20221;-52
2023/12/19 00:47:03;;;;;;;478.47;187.63;;;;;;;;;;4984093;28;20319;-52
2023/12/19 00:49:29;;;;;;;475.43;177.80;;;;;;;;;;4987829;28;20569;-52
2023/12/19 00:51:55;;;;;;;445.53;171.13;;;;;;;;;;4988872;28;20317;-52
2023/12/19 00:54:22;;;;;;;448.37;170.33;;;;;;;;;;4988291;28;20647;-52
2023/12/19 00:56:48;;;;;;;447.67;167.13;;;;;;;;;;4995297;28;20294;-52
2023/12/19 00:59:13;;;;;;;429.93;159.30;;;;;;;;;;4988361;28;20694;-52
2023/12/19 01:01:39;;;;;;;444.30;167.33;;;;;;;;;;4981599;28;20209;-52
2023/12/19 01:04:06;;;;;;;423.83;161.50;;;;;;;;;;4988285;28;20313;-52
2023/12/19 01:06:32;;;;;;;431.90;161.57;;;;;;;;;;4991276;28;20193;-52
2023/12/19 01:08:58;;;;;;;448.50;170.73;;;;;;;;;;4989575;28;20200;-52
2023/12/19 01:11:24;;;;;;;435.43;162.80;;;;;;;;;;4985991;28;20253;-52
2023/12/19 01:13:50;;;;;;;449.60;172.83;;;;;;;;;;4990789;28;20212;-52
2023/12/19 01:16:16;;;;;;;434.30;160.53;;;;;;;;;;4990251;28;20217;-52
2023/12/19 01:18:42;;;;;;;440.83;163.03;;;;;;;;;;4993344;28;20709;-52
2023/12/19 01:21:08;;;;;;;472.43;176.70;;;;;;;;;;4992339;28;20223;-52
2023/12/19 01:23:34;;;;;;;446.67;167.33;;;;;;;;;;4987665;28;20787;-52
2023/12/19 01:26:00;;;;;;;438.87;164.53;;;;;;;;;;4988126;28;20319;-52
2023/12/19 01:28:26;;;;;;;449.13;167.87;;;;;;;;;;4988444;28;20244;-52
2023/12/19 01:30:52;;;;;;;458.70;172.97;;;;;;;;;;4982529;28;20251;-52
2023/12/19 01:33:18;;;;;;;417.83;158.73;;;;;;;;;;4991908;28;20619;-52
2023/12/19 01:35:45;;;;;;;444.33;166.23;;;;;;;;;;4988494;28;20750;-52
2023/12/19 01:38:11;;;;;;;475.70;176.33;;;;;;;;;;4985168;28;20217;-52
2023/12/19 01:40:36;;;;;;;426.50;156.70;;;;;;;;;;4985303;28;20695;-52
2023/12/19 01:43:02;;;;;;;475.20;179.17;;;;;;;;;;4986074;28;20216;-52
2023/12/19 01:45:29;;;;;;;434.17;162.37;;;;;;;;;;4985839;28;20191;-52
2023/12/19 01:47:56;;;;;;;413.67;154.43;;;;;;;;;;4990449;28;20222;-52
2023/12/19 01:50:22;;;;;;;419.03;156.03;;;;;;;;;;4991212;28;20217;-52
2023/12/19 01:52:55;;;;;;;435.70;160.63;;;;;;;;;;4982296;28;20220;-52
2023/12/19 01:55:22;;;;;;;410.57;152.67;;;;;;;;;;4982626;28;20220;-52
2023/12/19 01:57:49;;;;;;;437.00;161.33;;;;;;;;;;4987591;28;20298;-52
2023/12/19 02:00:15;;;;;;;487.30;182.70;;;;;;;;;;4985942;28;20252;-52
2023/12/19 02:02:41;;;;;;;452.73;170.80;;;;;;;;;;4990309;28;20212;-52
2023/12/19 02:05:07;;;;;;;450.37;168.80;;;;;;;;;;4987562;28;20274;-52
2023/12/19 02:07:33;;;;;;;438.77;164.20;;;;;;;;;;4990101;28;20738;-52
2023/12/19 02:10:00;;;;;;;447.93;167.87;;;;;;;;;;4985123;28;20225;-53
2023/12/19 02:12:26;;;;;;;445.53;169.13;;;;;;;;;;4990805;28;20801;-52
2023/12/19 02:14:52;;;;;;;426.97;158.20;;;;;;;;;;4990200;28;20189;-52
2023/12/19 02:17:18;;;;;;;456.13;172.70;;;;;;;;;;4982409;28;20471;-52
2023/12/19 02:19:48;;;;;;;417.73;154.87;;;;;;;;;;4985164;28;20933;-52
2023/12/19 02:22:14;;;;;;;433.50;164.07;;;;;;;;;;4991563;28;20686;-50
2023/12/19 02:24:40;;;;;;;446.50;173.83;;;;;;;;;;5005555;28;20231;-52
2023/12/19 02:27:07;;;;;;;481.13;182.37;;;;;;;;;;4990690;28;20649;-52
2023/12/19 02:29:33;;;;;;;431.77;161.77;;;;;;;;;;4993824;28;20225;-52
2023/12/19 02:31:59;;;;;;;443.47;167.03;;;;;;;;;;4987209;28;20225;-52
2023/12/19 02:34:25;;;;;;;448.87;168.00;;;;;;;;;;4981846;28;20219;-52
2023/12/19 02:36:51;;;;;;;450.80;167.97;;;;;;;;;;4988442;28;20503;-51
2023/12/19 02:39:17;;;;;;;504.07;193.77;;;;;;;;;;4983722;28;20216;-52
2023/12/19 02:41:43;;;;;;;428.70;156.77;;;;;;;;;;4984890;28;20316;-52
2023/12/19 02:44:09;;;;;;;443.70;166.13;;;;;;;;;;4989248;28;20594;-52
2023/12/19 02:46:36;;;;;;;417.17;157.87;;;;;;;;;;4988254;28;20308;-51
2023/12/19 02:49:02;;;;;;;441.40;165.27;;;;;;;;;;4992441;28;20824;-53
2023/12/19 02:51:29;;;;;;;473.17;180.10;;;;;;;;;;4994317;28;20220;-52
2023/12/19 02:53:55;;;;;;;452.27;169.50;;;;;;;;;;4992808;28;20216;-52
2023/12/19 02:56:21;;;;;;;463.87;173.00;;;;;;;;;;4987010;28;20232;-51
2023/12/19 02:58:47;;;;;;;458.47;172.77;;;;;;;;;;4989051;28;20703;-52
2023/12/19 03:01:13;;;;;;;428.30;163.60;;;;;;;;;;4990553;28;20735;-52
2023/12/19 03:03:43;;;;;;;403.13;151.53;;;;;;;;;;4994790;28;20722;-52
2023/12/19 03:06:09;;;;;;;429.13;164.40;;;;;;;;;;4994279;28;20188;-51
2023/12/19 03:08:35;;;;;;;436.47;163.73;;;;;;;;;;4997392;28;20801;-51
2023/12/19 03:11:01;;;;;;;455.90;173.63;;;;;;;;;;4976571;28;20221;-51
2023/12/19 03:13:27;;;;;;;449.07;167.20;;;;;;;;;;4990810;28;20224;-51
2023/12/19 03:15:53;;;;;;;426.67;158.47;;;;;;;;;;4994307;28;20216;-51
2023/12/19 03:18:24;;;;;;;441.97;163.73;;;;;;;;;;4992825;28;20458;-51
2023/12/19 03:20:51;;;;;;;449.43;168.83;;;;;;;;;;4995225;28;20259;-51
2023/12/19 03:23:18;;;;;;;480.10;182.23;;;;;;;;;;4992807;28;20212;-51
2023/12/19 03:25:44;;;;;;;418.30;156.63;;;;;;;;;;4990727;28;20594;-51
2023/12/19 03:28:10;;;;;;;450.03;168.80;;;;;;;;;;4987283;28;20218;-51
2023/12/19 03:30:36;;;;;;;490.53;191.23;;;;;;;;;;4983922;28;20747;-52
2023/12/19 03:33:02;;;;;;;439.33;165.17;;;;;;;;;;4995189;28;20644;-51
2023/12/19 03:35:28;;;;;;;434.67;162.53;;;;;;;;;;4993932;28;20213;-51
2023/12/19 03:37:54;;;;;;;480.27;182.30;;;;;;;;;;4981310;28;20769;-51
2023/12/19 03:40:20;;;;;;;449.17;173.63;;;;;;;;;;4984821;28;20239;-51
2023/12/19 03:42:46;;;;;;;425.90;163.27;;;;;;;;;;4988945;28;20308;-51
2023/12/19 03:45:12;;;;;;;468.33;177.30;;;;;;;;;;4991095;28;20283;-51
2023/12/19 03:47:38;;;;;;;453.23;169.20;;;;;;;;;;4990696;28;20308;-51
2023/12/19 03:50:05;;;;;;;475.73;176.27;;;;;;;;;;4986601;28;20221;-52
2023/12/19 03:52:31;;;;;;;478.50;185.77;;;;;;;;;;4987032;28;20245;-51
2023/12/19 03:54:57;;;;;;;435.93;163.70;;;;;;;;;;4992443;28;20299;-51
2023/12/19 03:57:23;;;;;;;434.37;162.13;;;;;;;;;;4989881;28;20220;-52
2023/12/19 03:59:49;;;;;;;465.77;173.20;;;;;;;;;;4988926;28;20204;-52
2023/12/19 04:02:15;;;;;;;475.67;182.20;;;;;;;;;;4975396;28;20721;-52
2023/12/19 04:04:41;;;;;;;462.00;173.03;;;;;;;;;;4991705;28;20231;-51
2023/12/19 04:07:08;;;;;;;468.30;174.17;;;;;;;;;;4995180;28;20228;-52
2023/12/19 04:09:34;;;;;;;446.40;166.47;;;;;;;;;;4986890;28;20247;-52
2023/12/19 04:12:02;;;;;;;449.00;169.27;;;;;;;;;;4984431;28;20276;-51
2023/12/19 04:14:28;;;;;;;475.00;183.23;;;;;;;;;;4990002;28;20278;-52
2023/12/19 04:16:54;;;;;;;439.13;164.00;;;;;;;;;;4987451;28;20208;-51
2023/12/19 04:19:21;;;;;;;473.23;182.87;;;;;;;;;;4987411;28;20381;-51
2023/12/19 04:21:47;;;;;;;433.23;162.43;;;;;;;;;;4991839;28;20228;-55
2023/12/19 04:24:14;;;;;;;422.67;157.10;;;;;;;;;;4999511;28;20185;-55
2023/12/19 04:26:41;;;;;;;434.50;161.67;;;;;;;;;;4993773;28;20248;-55
2023/12/19 04:29:07;;;;;;;434.80;162.83;;;;;;;;;;4994871;28;20221;-54
2023/12/19 04:31:33;;;;;;;466.97;177.23;;;;;;;;;;4995413;28;20845;-54
2023/12/19 04:33:59;;;;;;;415.00;157.67;;;;;;;;;;4993978;28;20288;-54
2023/12/19 04:36:25;;;;;;;463.93;178.37;;;;;;;;;;4992685;28;20189;-55
2023/12/19 04:38:52;;;;;;;430.87;161.37;;;;;;;;;;4998156;28;20704;-55
2023/12/19 04:41:18;;;;;;;463.70;174.13;;;;;;;;;;4997287;28;20231;-55
2023/12/19 04:43:44;;;;;;;447.70;166.87;;;;;;;;;;4993356;28;20217;-55
2023/12/19 04:46:10;;;;;;;435.70;161.87;;;;;;;;;;4997327;28;20288;-55
2023/12/19 04:48:36;;;;;;;448.73;165.53;;;;;;;;;;4992938;28;20323;-55
2023/12/19 04:51:02;;;;;;;412.77;154.10;;;;;;;;;;5002140;28;20212;-55
2023/12/19 04:53:28;;;;;;;544.57;225.00;;;;;;;;;;4991809;28;20381;-55
2023/12/19 04:55:54;;;;;;;471.97;178.93;;;;;;;;;;4992945;28;20394;-55
2023/12/19 04:58:20;;;;;;;432.97;166.27;;;;;;;;;;4998686;28;20212;-55
2023/12/19 05:00:47;;;;;;;456.73;170.63;;;;;;;;;;4991585;28;20233;-55
2023/12/19 05:03:14;;;;;;;449.43;167.27;;;;;;;;;;4997478;28;20189;-55
2023/12/19 05:05:40;;;;;;;413.83;159.03;;;;;;;;;;5000228;28;20220;-54
2023/12/19 05:08:06;;;;;;;430.30;161.73;;;;;;;;;;4993815;28;20221;-54
2023/12/19 05:10:32;;;;;;;463.57;176.80;;;;;;;;;;4994970;28;20232;-54
2023/12/19 05:12:58;;;;;;;413.23;156.47;;;;;;;;;;4998886;28;20236;-54
2023/12/19 05:15:24;;;;;;;470.80;182.00;;;;;;;;;;4989565;28;20591;-54
2023/12/19 05:17:50;;;;;;;446.97;168.93;;;;;;;;;;4993904;28;20185;-54
2023/12/19 05:20:16;;;;;;;453.17;166.47;;;;;;;;;;4998401;28;20224;-54
2023/12/19 05:22:41;;;;;;;479.23;179.70;;;;;;;;;;4993847;28;20507;-54
2023/12/19 05:25:08;;;;;;;434.77;161.50;;;;;;;;;;4991862;28;20228;-54
2023/12/19 05:27:36;;;;;;;471.20;178.07;;;;;;;;;;4995610;28;20193;-54
2023/12/19 05:30:02;;;;;;;415.90;157.17;;;;;;;;;;4998397;28;20215;-55
2023/12/19 05:32:28;;;;;;;481.03;189.00;;;;;;;;;;4996105;28;20285;-54
2023/12/19 05:34:54;;;;;;;496.17;188.87;;;;;;;;;;4989379;28;20327;-54
2023/12/19 05:37:20;;;;;;;423.23;154.70;;;;;;;;;;4999948;28;20231;-56
2023/12/19 05:39:46;;;;;;;427.20;155.10;;;;;;;;;;4992486;28;20228;-54
2023/12/19 05:42:12;;;;;;;424.70;157.87;;;;;;;;;;4997297;28;20185;-54
2023/12/19 05:44:38;;;;;;;443.03;163.10;;;;;;;;;;4994919;28;20300;-56
2023/12/19 05:47:04;;;;;;;478.57;180.47;;;;;;;;;;4991902;28;20283;-54
2023/12/19 05:49:30;;;;;;;466.47;180.17;;;;;;;;;;4999912;28;20243;-54
2023/12/19 05:51:57;;;;;;;473.80;178.57;;;;;;;;;;4995208;28;20224;-54
2023/12/19 05:54:23;;;;;;;479.33;186.13;;;;;;;;;;4995869;28;20530;-54
2023/12/19 05:56:49;;;;;;;444.30;165.27;;;;;;;;;;4997619;28;20541;-56
2023/12/19 05:59:15;;;;;;;442.83;165.13;;;;;;;;;;4992197;28;20695;-54
2023/12/19 06:01:44;;;;;;;461.37;172.30;;;;;;;;;;4993135;28;20229;-54
2023/12/19 06:04:11;;;;;;;449.90;169.67;;;;;;;;;;4991763;28;20572;-54
2023/12/19 06:06:42;;;;;;;456.57;173.07;;;;;;;;;;4997275;28;20609;-54
2023/12/19 06:09:11;;;;;;;401.67;147.43;;;;;;;;;;4998637;28;20734;-54
2023/12/19 06:11:37;;;;;;;434.93;163.57;;;;;;;;;;4997708;28;20224;-54
2023/12/19 06:14:03;;;;;;;482.47;185.70;;;;;;;;;;4993005;28;20214;-54
2023/12/19 06:16:28;;;;;;;473.90;178.13;;;;;;;;;;4998786;28;20556;-54
2023/12/19 06:18:54;;;;;;;440.97;161.87;;;;;;;;;;4994239;28;20232;-54
2023/12/19 06:21:20;;;;;;;406.73;152.50;;;;;;;;;;4994366;28;20239;-54
2023/12/19 06:23:46;;;;;;;428.13;161.07;;;;;;;;;;4999686;28;20212;-56
2023/12/19 06:26:12;;;;;;;433.03;161.40;;;;;;;;;;4996103;28;20397;-54
2023/12/19 06:28:38;;;;;;;454.37;174.63;;;;;;;;;;4999647;28;20220;-54
2023/12/19 06:31:05;;;;;;;456.87;173.53;;;;;;;;;;4993320;28;20266;-54
2023/12/19 06:33:31;;;;;;;491.07;186.30;;;;;;;;;;4993297;28;20257;-54
2023/12/19 06:35:57;;;;;;;448.10;167.07;;;;;;;;;;4995491;28;20188;-54
2023/12/19 06:38:23;;;;;;;431.00;157.50;;;;;;;;;;4999630;28;20690;-54
2023/12/19 06:40:49;;;;;;;397.33;145.73;;;;;;;;;;4998547;28;20228;-54
2023/12/19 06:43:15;;;;;;;468.43;177.70;;;;;;;;;;4992009;28;20238;-54
2023/12/19 06:45:41;;;;;;;419.80;159.60;;;;;;;;;;4990656;28;20286;-56
2023/12/19 06:48:07;;;;;;;422.70;156.63;;;;;;;;;;4998484;28;20541;-55
2023/12/19 06:50:33;;;;;;;425.40;160.50;;;;;;;;;;4995282;28;20279;-56
2023/12/19 06:52:59;;;;;;;466.90;181.13;;;;;;;;;;4988923;28;20553;-57
2023/12/19 06:55:25;;;;;;;428.50;160.30;;;;;;;;;;4994716;28;20220;-56
2023/12/19 06:57:52;;;;;;;446.20;166.63;;;;;;;;;;4987008;28;20218;-56
2023/12/19 07:00:18;;;;;;;457.27;171.57;;;;;;;;;;4987192;28;20208;-56
2023/12/19 07:02:45;;;;;;;447.20;166.77;;;;;;;;;;4989828;28;20870;-57
2023/12/19 07:05:11;;;;;;;417.47;156.43;;;;;;;;;;4988277;28;21390;-57
2023/12/19 07:07:37;;;;;;;429.17;163.87;;;;;;;;;;4993075;28;20472;-56
2023/12/19 07:10:03;;;;;;;442.10;167.50;;;;;;;;;;4991871;28;20227;-55
2023/12/19 07:12:30;;;;;;;475.37;184.67;;;;;;;;;;4991977;28;20564;-55
2023/12/19 07:14:56;;;;;;;462.10;177.27;;;;;;;;;;4993068;28;20173;-56
2023/12/19 07:17:22;;;;;;;429.07;164.37;;;;;;;;;;4990471;28;20333;-57
2023/12/19 07:19:48;;;;;;;438.33;167.47;;;;;;;;;;4994601;28;20714;-57
2023/12/19 07:22:14;;;;;;;423.03;160.47;;;;;;;;;;4995984;28;20216;-56
2023/12/19 07:24:40;;;;;;;466.13;181.77;;;;;;;;;;4992338;28;20745;-55
2023/12/19 07:27:06;;;;;;;435.97;165.53;;;;;;;;;;4990461;28;20620;-55
2023/12/19 07:29:32;;;;;;;434.63;159.30;;;;;;;;;;4987213;28;20309;-56
2023/12/19 07:31:58;;;;;;;425.90;158.30;;;;;;;;;;4991701;28;20574;-57
2023/12/19 07:34:24;;;;;;;453.53;168.53;;;;;;;;;;4996257;28;20683;-56
2023/12/19 07:36:51;;;;;;;451.43;170.73;;;;;;;;;;4992606;28;20295;-56
2023/12/19 07:39:17;;;;;;;475.10;179.70;;;;;;;;;;4992787;28;20205;-56
2023/12/19 07:41:43;;;;;;;472.70;183.87;;;;;;;;;;4990950;28;20236;-55
2023/12/19 07:44:09;;;;;;;449.13;173.07;;;;;;;;;;4991548;28;20620;-56
2023/12/19 07:46:44;;;;;;;418.07;158.47;;;;;;;;;;4994974;28;20535;-56
2023/12/19 07:49:10;;;;;;;435.60;159.10;;;;;;;;;;4998201;28;20216;-56
2023/12/19 07:51:36;;;;;;;462.37;178.03;;;;;;;;;;4995261;28;20209;-56
2023/12/19 07:54:02;;;;;;;481.53;180.20;;;;;;;;;;4963099;28;20398;-56
2023/12/19 07:56:28;;;;;;;478.13;183.53;;;;;;;;;;4974575;28;20322;-55
2023/12/19 07:58:54;;;;;;;419.63;158.63;;;;;;;;;;4986431;28;20508;-56
2023/12/19 08:01:20;;;;;;;428.97;161.93;;;;;;;;;;4988995;28;20268;-55
2023/12/19 08:03:46;;;;;;;443.53;169.80;;;;;;;;;;4983191;28;20220;-55
2023/12/19 08:06:13;;;;;;;470.83;184.77;;;;;;;;;;4980773;28;20198;-57
2023/12/19 08:08:40;;;;;;;485.23;188.43;;;;;;;;;;4974410;28;20327;-57
2023/12/19 08:11:06;;;;;;;391.13;144.57;;;;;;;;;;4982848;28;20302;-56
2023/12/19 08:13:35;;;;;;;503.47;201.50;;;;;;;;;;4986094;28;20237;-56
2023/12/19 08:16:02;;;;;;;427.20;160.83;;;;;;;;;;4986857;28;20228;-56
2023/12/19 08:18:28;;;;;;;452.33;175.30;;;;;;;;;;4985081;28;20244;-55
2023/12/19 08:20:55;;;;;;;473.60;184.27;;;;;;;;;;4984289;28;20220;-56
2023/12/19 08:23:30;;;;;;;356.80;130.40;;;;;;;;;;4993334;28;20209;-56
2023/12/19 08:25:56;;;;;;;518.17;201.97;;;;;;;;;;4980277;28;20224;-56
2023/12/19 08:28:22;;;;;;;398.27;146.90;;;;;;;;;;4988875;28;20244;-55
2023/12/19 08:30:48;;;;;;;483.60;186.97;;;;;;;;;;4983454;28;20221;-55
2023/12/19 08:33:14;;;;;;;477.67;182.63;;;;;;;;;;4988808;28;20202;-56
2023/12/19 08:35:40;;;;;;;481.83;183.90;;;;;;;;;;4978871;28;20217;-56
2023/12/19 08:38:06;;;;;;;433.70;164.27;;;;;;;;;;4982431;28;20236;-56
2023/12/19 08:40:32;;;;;;;478.40;181.87;;;;;;;;;;4981070;28;20220;-56
2023/12/19 08:42:58;;;;;;;413.63;155.30;;;;;;;;;;4989943;28;20220;-56
2023/12/19 08:45:26;;;;;;;408.00;154.00;;;;;;;;;;4998525;28;20181;-57
2023/12/19 08:47:53;;;;;;;480.73;185.53;;;;;;;;;;4992991;28;20209;-57
2023/12/19 08:50:19;;;;;;;483.07;188.53;;;;;;;;;;4993739;28;20248;-56
2023/12/19 08:52:47;;;;;;;459.50;180.27;;;;;;;;;;4985007;28;20224;-56
2023/12/19 08:55:13;;;;;;;396.77;150.50;;;;;;;;;;4986706;28;20228;-56
2023/12/19 08:57:44;;;;;;;422.60;159.33;;;;;;;;;;4991364;28;20189;-59
2023/12/19 09:00:18;;;;;;;484.23;190.67;;;;;;;;;;4981658;28;20591;-58
2023/12/19 09:02:44;;;;;;;458.60;176.43;;;;;;;;;;4988287;28;20561;-57
2023/12/19 09:05:14;;;;;;;467.37;179.97;;;;;;;;;;4990213;28;20217;-55
2023/12/19 09:07:40;;;;;;;434.43;164.17;;;;;;;;;;4992887;28;20225;-56
2023/12/19 09:10:07;;;;;;;423.60;155.13;;;;;;;;;;4999262;28;20224;-55
2023/12/19 09:12:36;;;;;;;430.97;166.83;;;;;;;;;;4986604;28;20188;-55
2023/12/19 09:15:02;;;;;;;423.50;161.17;;;;;;;;;;4990153;28;20540;-55
2023/12/19 09:17:28;;;;;;;411.87;156.47;;;;;;;;;;4997866;28;20386;-55
2023/12/19 09:19:55;;;;;;;543.73;219.10;;;;;;;;;;4985011;28;20236;-56
2023/12/19 09:22:21;;;;;;;457.60;175.90;;;;;;;;;;4959854;28;20679;-55
2023/12/19 09:24:47;;;;;;;490.50;191.80;;;;;;;;;;4983737;28;20304;-55
2023/12/19 09:27:13;;;;;;;458.00;172.20;;;;;;;;;;4958835;28;20651;-55
2023/12/19 09:29:40;;;;;;;441.77;169.37;;;;;;;;;;4986160;28;20275;-55
2023/12/19 09:32:07;;;;;;;525.60;212.17;;;;;;;;;;4972971;28;20227;-55
2023/12/19 09:34:33;;;;;;;412.90;156.93;;;;;;;;;;4987710;28;20260;-56
2023/12/19 09:37:00;;;;;;;461.20;176.50;;;;;;;;;;4984649;28;20576;-55
2023/12/19 09:39:26;;;;;;;473.50;182.43;;;;;;;;;;4981595;28;20227;-55
2023/12/19 09:41:52;;;;;;;443.90;166.83;;;;;;;;;;4993035;28;20212;-56
2023/12/19 09:44:18;;;;;;;430.33;164.43;;;;;;;;;;4976276;28;20503;-55
2023/12/19 09:46:48;;;;;;;401.13;150.10;;;;;;;;;;4991006;28;20542;-55
2023/12/19 09:49:15;;;;;;;422.33;156.33;;;;;;;;;;4989975;28;20221;-55
2023/12/19 09:51:42;;;;;;;424.97;160.83;;;;;;;;;;4987851;28;20830;-55
2023/12/19 09:54:09;;;;;;;429.17;159.60;;;;;;;;;;4978610;28;20211;-55
2023/12/19 09:56:35;;;;;;;413.07;155.60;;;;;;;;;;4972250;28;20268;-55
2023/12/19 09:59:04;;;;;;;422.27;159.33;;;;;;;;;;4960114;28;20570;-54
2023/12/19 10:01:30;;;;;;;466.40;177.87;;;;;;;;;;4967896;28;20427;-55
2023/12/19 10:03:56;;;;;;;483.03;184.87;;;;;;;;;;4963402;28;20243;-55
2023/12/19 10:06:23;;;;;;;429.37;158.57;;;;;;;;;;4993258;28;20197;-55
2023/12/19 10:08:52;;;;;;;434.13;162.00;;;;;;;;;;4983345;28;20201;-54
2023/12/19 10:11:21;;;;;;;420.40;155.63;;;;;;;;;;4987947;28;20221;-54
2023/12/19 10:13:47;;;;;;;422.77;157.83;;;;;;;;;;4986724;28;20260;-54
2023/12/19 10:16:17;;;;;;;450.83;168.77;;;;;;;;;;4979136;28;20319;-56
2023/12/19 10:18:44;;;;;;;446.77;170.53;;;;;;;;;;4983667;28;20225;-55
2023/12/19 10:21:11;;;;;;;441.83;166.70;;;;;;;;;;4980361;28;20235;-55
2023/12/19 10:23:40;;;;;;;462.50;175.73;;;;;;;;;;4987055;28;20216;-51
2023/12/19 10:26:07;;;;;;;457.67;171.30;;;;;;;;;;4977970;28;20216;-51
2023/12/19 10:28:36;;;;;;;413.70;153.23;;;;;;;;;;4976188;28;20850;-50
2023/12/19 10:31:15;;;;;;;441.83;166.37;;;;;;;;;;4966144;28;20791;-51
2023/12/19 10:33:45;;;;;;;480.13;190.60;;;;;;;;;;4995236;28;20502;-51
2023/12/19 10:36:30;;;;;;;350.80;138.17;;;;;;;;;;4995223;28;20906;-51
2023/12/19 10:38:57;;;;;;;366.53;146.47;;;;;;;;;;4995970;28;20278;-51
2023/12/19 10:41:24;;;;;;;347.50;136.40;;;;;;;;;;4996727;28;20228;-51
2023/12/19 10:43:51;;;;;;;343.87;134.67;;;;;;;;;;5006181;28;20291;-51
2023/12/19 10:46:18;;;;;;;343.07;135.70;;;;;;;;;;4997524;28;21333;-51
2023/12/19 10:48:45;;;;;;;351.97;139.73;;;;;;;;;;4981232;28;20213;-51
2023/12/19 10:51:13;;;;;;;347.47;135.87;;;;;;;;;;4979457;28;20220;-51
2023/12/19 10:53:48;;;;;;;385.30;152.33;;;;;;;;;;4998221;28;20217;-51
2023/12/19 10:56:15;;;;;;;340.87;133.10;;;;;;;;;;4997514;28;20213;-51
2023/12/19 10:58:46;;;;;;;346.67;136.83;;;;;;;;;;5000108;28;20291;-51
2023/12/19 11:01:12;;;;;;;337.97;132.97;;;;;;;;;;4999330;28;20366;-52
2023/12/19 11:03:42;;;;;;;378.17;148.90;;;;;;;;;;5001306;28;20262;-51
2023/12/19 11:06:10;;;;;;;374.47;149.97;;;;;;;;;;4998050;28;20227;-51
2023/12/19 11:08:39;;;;;;;344.90;135.97;;;;;;;;;;5002470;28;20216;-51
2023/12/19 11:11:10;;;;;;;364.57;147.43;;;;;;;;;;4999138;28;20252;-51
2023/12/19 11:13:37;;;;;;;344.00;135.60;;;;;;;;;;5002093;28;20208;-51
2023/12/19 11:16:11;;;;;;;374.23;150.03;;;;;;;;;;5000734;28;20213;-51
2023/12/19 11:18:44;;;;;;;352.47;140.33;;;;;;;;;;5002549;28;20662;-51
2023/12/19 11:21:13;;;;;;;363.37;144.87;;;;;;;;;;5001006;28;20213;-51
2023/12/19 11:23:39;;;;;;;559.13;198.27;;;;;;;;;;4992437;28;20227;-51
2023/12/19 11:26:07;;;;;;;532.63;182.70;;;;;;;;;;4955982;28;20217;-51
2023/12/19 11:28:36;;;;;;;448.90;166.27;;;;;;;;;;4982756;28;20221;-51
2023/12/19 11:31:03;;;;;;;462.73;175.33;;;;;;;;;;4986081;28;20703;-51
2023/12/19 11:33:29;;;;;;;462.57;178.77;;;;;;;;;;4984532;28;20671;-51
2023/12/19 11:35:56;;;;;;;459.23;172.93;;;;;;;;;;4986529;28;20750;-51
2023/12/19 11:38:25;;;;;;;444.97;169.27;;;;;;;;;;4986022;28;20310;-51
2023/12/19 11:40:51;;;;;;;447.10;167.43;;;;;;;;;;4973900;28;20263;-51
2023/12/19 11:43:35;;;;;;;441.33;163.27;;;;;;;;;;4988149;28;20237;-51
2023/12/19 11:46:04;;;;;;;479.27;183.97;;;;;;;;;;4984554;28;20223;-51
2023/12/19 11:48:40;;;;;;;446.50;174.07;;;;;;;;;;4982234;28;20292;-52
2023/12/19 11:51:09;;;;;;;488.03;191.63;;;;;;;;;;4991281;28;20537;-51
2023/12/19 11:53:36;;;;;;;427.93;162.23;;;;;;;;;;4989851;28;20216;-51
2023/12/19 11:56:09;;;;;;;497.07;189.37;;;;;;;;;;4986120;28;20486;-50
2023/12/19 11:58:53;;;;;;;468.40;177.37;;;;;;;;;;4988154;28;20572;-51
2023/12/19 12:01:20;;;;;;;553.83;220.93;;;;;;;;;;4977191;28;20232;-51
2023/12/19 12:03:49;;;;;;;461.70;172.83;;;;;;;;;;4974466;28;20253;-51
2023/12/19 12:06:19;;;;;;;455.67;174.20;;;;;;;;;;4977999;28;22742;-51
2023/12/19 12:08:53;;;;;;;451.43;170.47;;;;;;;;;;4984790;28;20217;-51
2023/12/19 12:11:19;;;;;;;456.83;176.80;;;;;;;;;;4982071;28;20223;-51
2023/12/19 12:13:59;;;;;;;438.93;162.70;;;;;;;;;;4982875;28;20268;-51
2023/12/19 12:16:34;;;;;;;454.17;171.43;;;;;;;;;;4986206;28;20254;-51
2023/12/19 12:19:08;;;;;;;458.33;172.17;;;;;;;;;;4988132;28;20212;-51
2023/12/19 12:21:34;;;;;;;437.57;164.40;;;;;;;;;;4979376;28;20261;-51
2023/12/19 12:24:01;;;;;;;442.70;169.73;;;;;;;;;;4984287;28;20240;-51
2023/12/19 12:26:27;;;;;;;417.40;151.80;;;;;;;;;;4980916;28;20220;-51
2023/12/19 12:28:53;;;;;;;427.23;157.53;;;;;;;;;;4982877;28;20271;-51
2023/12/19 12:31:20;;;;;;;444.53;165.20;;;;;;;;;;4986534;28;20221;-51
2023/12/19 12:33:46;;;;;;;481.20;186.80;;;;;;;;;;4976140;28;20627;-51
2023/12/19 12:36:12;;;;;;;583.90;242.67;;;;;;;;;;4975000;28;21213;-51
2023/12/19 12:38:39;;;;;;;455.37;168.27;;;;;;;;;;4975429;28;20223;-51
2023/12/19 12:41:06;;;;;;;463.77;178.83;;;;;;;;;;4986042;28;23471;-51
2023/12/19 12:43:34;;;;;;;458.87;175.40;;;;;;;;;;4979290;28;20588;-51
2023/12/19 12:46:09;;;;;;;464.43;175.67;;;;;;;;;;4978098;28;20220;-51
2023/12/19 12:48:35;;;;;;;446.20;169.17;;;;;;;;;;4979799;28;22790;-51
2023/12/19 12:51:02;;;;;;;422.77;157.43;;;;;;;;;;4987455;28;20197;-51
2023/12/19 12:53:28;;;;;;;464.47;179.23;;;;;;;;;;4968723;28;20267;-52
2023/12/19 12:56:15;;;;;;;438.03;164.13;;;;;;;;;;4979181;28;20607;-51
2023/12/19 12:58:42;;;;;;;418.33;157.90;;;;;;;;;;4983795;28;20231;-51
2023/12/19 13:01:09;;;;;;;455.20;174.13;;;;;;;;;;4986460;28;20235;-51
2023/12/19 13:03:35;;;;;;;452.73;173.33;;;;;;;;;;4981804;28;20197;-51
2023/12/19 13:06:01;;;;;;;483.27;186.33;;;;;;;;;;4976234;28;20263;-51
2023/12/19 13:08:37;;;;;;;466.20;178.17;;;;;;;;;;4979474;28;20221;-51
2023/12/19 13:11:07;;;;;;;410.40;153.63;;;;;;;;;;4983696;28;20243;-51
2023/12/19 13:13:33;;;;;;;456.60;174.50;;;;;;;;;;4980230;28;20223;-51
2023/12/19 13:16:00;;;;;;;520.67;204.97;;;;;;;;;;4971391;28;21470;-52
2023/12/19 13:18:26;;;;;;;502.83;194.80;;;;;;;;;;4980209;28;20200;-51
2023/12/19 13:20:53;;;;;;;510.77;198.77;;;;;;;;;;4978040;28;20213;-50
2023/12/19 13:23:19;;;;;;;453.37;170.17;;;;;;;;;;4981774;28;20216;-51
2023/12/19 13:25:46;;;;;;;484.73;184.50;;;;;;;;;;4972763;28;20691;-51
2023/12/19 13:28:11;;;;;;;438.70;166.60;;;;;;;;;;4976396;28;20259;-51
2023/12/19 13:30:38;;;;;;;432.53;162.10;;;;;;;;;;4971895;28;20299;-51
2023/12/19 13:33:11;;;;;;;479.33;187.30;;;;;;;;;;4977565;28;20185;-51
2023/12/19 13:35:37;;;;;;;449.43;166.23;;;;;;;;;;4977490;28;20663;-51
2023/12/19 13:38:04;;;;;;;463.23;172.37;;;;;;;;;;4977769;28;20768;-51
2023/12/19 13:40:30;;;;;;;455.50;172.53;;;;;;;;;;4974643;28;20267;-51
2023/12/19 13:42:59;;;;;;;460.17;170.53;;;;;;;;;;4979202;28;20223;-51
2023/12/19 13:45:30;;;;;;;519.93;214.10;;;;;;;;;;4979405;28;20648;-51
2023/12/19 13:47:58;;;;;;;489.00;182.63;;;;;;;;;;4977360;28;20217;-51
2023/12/19 13:50:24;;;;;;;487.77;184.60;;;;;;;;;;4971343;28;20230;-51